sensor_id;sensor_type;location;lat;lon;timestamp;pressure;altitude;pressure_sealevel;temperature;humidity
47913;BME280;33676;51.006;17.180;2024-03-22T00:02:22;100591.61;;;10.88;84.07
47913;BME280;33676;51.006;17.180;2024-03-22T00:04:49;100589.44;;;10.82;84.17
47913;BME280;33676;51.006;17.180;2024-03-22T00:07:17;100583.27;;;10.76;84.20
47913;BME280;33676;51.006;17.180;2024-03-22T00:09:44;100584.35;;;10.70;84.15
47913;BME280;33676;51.006;17.180;2024-03-22T00:12:11;100586.16;;;10.65;84.18
47913;BME280;33676;51.006;17.180;2024-03-22T00:14:38;100585.44;;;10.60;84.47
47913;BME280;33676;51.006;17.180;2024-03-22T00:17:05;100587.95;;;10.56;84.74
47913;BME280;33676;51.006;17.180;2024-03-22T00:19:32;100585.48;;;10.54;85.09
47913;BME280;33676;51.006;17.180;2024-03-22T00:21:59;100579.92;;;10.54;85.38
47913;BME280;33676;51.006;17.180;2024-03-22T00:24:26;100582.99;;;10.55;85.70
47913;BME280;33676;51.006;17.180;2024-03-22T00:26:53;100581.42;;;10.57;85.78
47913;BME280;33676;51.006;17.180;2024-03-22T00:29:20;100586.50;;;10.59;85.93
47913;BME280;33676;51.006;17.180;2024-03-22T00:31:48;100581.14;;;10.61;86.29
47913;BME280;33676;51.006;17.180;2024-03-22T00:34:15;100581.36;;;10.61;86.09
47913;BME280;33676;51.006;17.180;2024-03-22T00:36:42;100582.07;;;10.60;86.05
47913;BME280;33676;51.006;17.180;2024-03-22T00:39:09;100585.91;;;10.58;85.56
47913;BME280;33676;51.006;17.180;2024-03-22T00:41:36;100584.40;;;10.55;85.24
47913;BME280;33676;51.006;17.180;2024-03-22T00:44:03;100588.66;;;10.51;84.95
47913;BME280;33676;51.006;17.180;2024-03-22T00:46:30;100600.77;;;10.49;84.68
47913;BME280;33676;51.006;17.180;2024-03-22T00:48:58;100590.23;;;10.44;84.77
47913;BME280;33676;51.006;17.180;2024-03-22T00:51:26;100592.56;;;10.41;84.67
47913;BME280;33676;51.006;17.180;2024-03-22T00:53:53;100598.18;;;10.39;84.57
47913;BME280;33676;51.006;17.180;2024-03-22T00:56:20;100596.02;;;10.37;84.45
47913;BME280;33676;51.006;17.180;2024-03-22T00:58:47;100593.23;;;10.35;84.49
47913;BME280;33676;51.006;17.180;2024-03-22T01:01:14;100597.05;;;10.33;84.35
47913;BME280;33676;51.006;17.180;2024-03-22T01:03:42;100595.44;;;10.31;84.40
47913;BME280;33676;51.006;17.180;2024-03-22T01:06:09;100594.55;;;10.29;84.49
47913;BME280;33676;51.006;17.180;2024-03-22T01:08:36;100595.61;;;10.26;84.40
47913;BME280;33676;51.006;17.180;2024-03-22T01:11:03;100589.63;;;10.24;84.29
47913;BME280;33676;51.006;17.180;2024-03-22T01:13:33;100591.95;;;10.23;84.29
47913;BME280;33676;51.006;17.180;2024-03-22T01:16:01;100589.86;;;10.21;84.20
47913;BME280;33676;51.006;17.180;2024-03-22T01:18:29;100583.55;;;10.18;84.17
47913;BME280;33676;51.006;17.180;2024-03-22T01:20:56;100584.16;;;10.17;84.03
47913;BME280;33676;51.006;17.180;2024-03-22T01:23:23;100585.29;;;10.16;83.92
47913;BME280;33676;51.006;17.180;2024-03-22T01:25:50;100582.97;;;10.14;83.99
47913;BME280;33676;51.006;17.180;2024-03-22T01:28:17;100581.91;;;10.12;83.80
47913;BME280;33676;51.006;17.180;2024-03-22T01:30:44;100578.81;;;10.09;83.90
47913;BME280;33676;51.006;17.180;2024-03-22T01:33:11;100579.77;;;10.05;83.80
47913;BME280;33676;51.006;17.180;2024-03-22T01:35:39;100578.37;;;10.03;83.81
47913;BME280;33676;51.006;17.180;2024-03-22T01:38:06;100576.51;;;10.00;83.83
47913;BME280;33676;51.006;17.180;2024-03-22T01:40:33;100575.38;;;9.95;83.90
47913;BME280;33676;51.006;17.180;2024-03-22T01:43:00;100570.17;;;9.90;83.72
47913;BME280;33676;51.006;17.180;2024-03-22T01:45:31;100560.63;;;9.82;83.64
47913;BME280;33676;51.006;17.180;2024-03-22T01:47:59;100559.77;;;9.75;83.48
47913;BME280;33676;51.006;17.180;2024-03-22T01:50:27;100558.50;;;9.68;83.60
47913;BME280;33676;51.006;17.180;2024-03-22T01:52:55;100549.39;;;9.61;83.56
47913;BME280;33676;51.006;17.180;2024-03-22T01:55:23;100547.27;;;9.54;83.77
47913;BME280;33676;51.006;17.180;2024-03-22T01:57:51;100545.78;;;9.48;83.76
47913;BME280;33676;51.006;17.180;2024-03-22T02:00:19;100545.64;;;9.42;83.73
47913;BME280;33676;51.006;17.180;2024-03-22T02:02:47;100546.80;;;9.38;83.83
47913;BME280;33676;51.006;17.180;2024-03-22T02:05:16;100547.32;;;9.33;84.05
47913;BME280;33676;51.006;17.180;2024-03-22T02:07:46;100541.80;;;9.30;84.34
47913;BME280;33676;51.006;17.180;2024-03-22T02:10:14;100541.25;;;9.27;84.69
47913;BME280;33676;51.006;17.180;2024-03-22T02:12:41;100537.53;;;9.25;84.93
47913;BME280;33676;51.006;17.180;2024-03-22T02:15:09;100537.19;;;9.23;85.12
47913;BME280;33676;51.006;17.180;2024-03-22T02:17:36;100536.34;;;9.20;85.08
47913;BME280;33676;51.006;17.180;2024-03-22T02:20:03;100537.75;;;9.17;85.30
47913;BME280;33676;51.006;17.180;2024-03-22T02:22:34;100533.80;;;9.14;85.25
47913;BME280;33676;51.006;17.180;2024-03-22T02:25:02;100536.92;;;9.11;85.42
47913;BME280;33676;51.006;17.180;2024-03-22T02:27:29;100534.45;;;9.09;85.69
47913;BME280;33676;51.006;17.180;2024-03-22T02:29:57;100534.95;;;9.07;85.76
47913;BME280;33676;51.006;17.180;2024-03-22T02:32:24;100535.54;;;9.06;85.93
47913;BME280;33676;51.006;17.180;2024-03-22T02:34:51;100540.99;;;9.05;86.09
47913;BME280;33676;51.006;17.180;2024-03-22T02:37:28;100535.97;;;9.05;86.37
47913;BME280;33676;51.006;17.180;2024-03-22T02:39:55;100539.73;;;9.06;86.68
47913;BME280;33676;51.006;17.180;2024-03-22T02:42:22;100543.83;;;9.07;86.55
47913;BME280;33676;51.006;17.180;2024-03-22T02:44:49;100541.95;;;9.09;86.70
47913;BME280;33676;51.006;17.180;2024-03-22T02:47:16;100537.83;;;9.11;86.85
47913;BME280;33676;51.006;17.180;2024-03-22T02:49:44;100535.06;;;9.13;86.78
47913;BME280;33676;51.006;17.180;2024-03-22T02:52:11;100538.23;;;9.15;86.79
47913;BME280;33676;51.006;17.180;2024-03-22T02:54:38;100531.64;;;9.17;86.83
47913;BME280;33676;51.006;17.180;2024-03-22T02:57:05;100532.61;;;9.18;86.89
47913;BME280;33676;51.006;17.180;2024-03-22T02:59:33;100538.59;;;9.20;87.00
47913;BME280;33676;51.006;17.180;2024-03-22T03:02:00;100534.67;;;9.22;87.15
47913;BME280;33676;51.006;17.180;2024-03-22T03:04:27;100536.83;;;9.23;87.02
47913;BME280;33676;51.006;17.180;2024-03-22T03:06:54;100533.81;;;9.24;87.13
47913;BME280;33676;51.006;17.180;2024-03-22T03:09:24;100530.08;;;9.25;87.14
47913;BME280;33676;51.006;17.180;2024-03-22T03:11:51;100531.61;;;9.25;87.22
47913;BME280;33676;51.006;17.180;2024-03-22T03:14:18;100524.75;;;9.26;87.34
47913;BME280;33676;51.006;17.180;2024-03-22T03:16:45;100523.14;;;9.27;87.34
47913;BME280;33676;51.006;17.180;2024-03-22T03:19:12;100527.64;;;9.27;87.50
47913;BME280;33676;51.006;17.180;2024-03-22T03:21:39;100527.39;;;9.28;87.69
47913;BME280;33676;51.006;17.180;2024-03-22T03:24:06;100530.73;;;9.28;87.66
47913;BME280;33676;51.006;17.180;2024-03-22T03:26:36;100529.00;;;9.28;87.74
47913;BME280;33676;51.006;17.180;2024-03-22T03:29:03;100529.21;;;9.27;88.03
47913;BME280;33676;51.006;17.180;2024-03-22T03:31:30;100521.36;;;9.25;87.97
47913;BME280;33676;51.006;17.180;2024-03-22T03:33:58;100515.16;;;9.24;88.00
47913;BME280;33676;51.006;17.180;2024-03-22T03:36:25;100513.15;;;9.22;88.31
47913;BME280;33676;51.006;17.180;2024-03-22T03:38:52;100513.66;;;9.20;88.37
47913;BME280;33676;51.006;17.180;2024-03-22T03:41:19;100511.63;;;9.17;88.56
47913;BME280;33676;51.006;17.180;2024-03-22T03:43:46;100510.84;;;9.13;88.73
47913;BME280;33676;51.006;17.180;2024-03-22T03:46:14;100512.92;;;9.08;88.77
47913;BME280;33676;51.006;17.180;2024-03-22T03:48:41;100516.36;;;9.04;88.93
47913;BME280;33676;51.006;17.180;2024-03-22T03:51:08;100513.70;;;8.99;89.04
47913;BME280;33676;51.006;17.180;2024-03-22T03:53:35;100511.13;;;8.96;89.14
47913;BME280;33676;51.006;17.180;2024-03-22T03:56:02;100518.59;;;8.94;89.16
47913;BME280;33676;51.006;17.180;2024-03-22T03:58:29;100516.05;;;8.93;89.33
47913;BME280;33676;51.006;17.180;2024-03-22T04:00:57;100515.68;;;8.93;89.50
47913;BME280;33676;51.006;17.180;2024-03-22T04:03:24;100511.16;;;8.93;89.45
47913;BME280;33676;51.006;17.180;2024-03-22T04:05:57;100509.39;;;8.93;89.62
47913;BME280;33676;51.006;17.180;2024-03-22T04:08:26;100509.91;;;8.93;89.87
47913;BME280;33676;51.006;17.180;2024-03-22T04:10:54;100513.55;;;8.93;89.76
47913;BME280;33676;51.006;17.180;2024-03-22T04:13:25;100509.99;;;8.94;89.85
47913;BME280;33676;51.006;17.180;2024-03-22T04:15:54;100514.84;;;8.95;89.84
47913;BME280;33676;51.006;17.180;2024-03-22T04:18:23;100518.64;;;8.96;89.93
47913;BME280;33676;51.006;17.180;2024-03-22T04:20:58;100520.16;;;8.96;89.95
47913;BME280;33676;51.006;17.180;2024-03-22T04:23:25;100515.73;;;8.97;89.99
47913;BME280;33676;51.006;17.180;2024-03-22T04:25:57;100517.26;;;8.98;90.16
47913;BME280;33676;51.006;17.180;2024-03-22T04:28:29;100521.76;;;8.99;90.26
47913;BME280;33676;51.006;17.180;2024-03-22T04:33:26;100519.59;;;9.00;90.42
47913;BME280;33676;51.006;17.180;2024-03-22T04:35:55;100519.54;;;9.00;90.58
47913;BME280;33676;51.006;17.180;2024-03-22T04:38:24;100514.63;;;9.01;90.61
47913;BME280;33676;51.006;17.180;2024-03-22T04:40:51;100508.55;;;9.01;90.59
47913;BME280;33676;51.006;17.180;2024-03-22T04:43:18;100508.45;;;9.00;90.50
47913;BME280;33676;51.006;17.180;2024-03-22T04:45:46;100503.95;;;8.99;90.52
47913;BME280;33676;51.006;17.180;2024-03-22T04:48:17;100506.09;;;8.98;90.64
47913;BME280;33676;51.006;17.180;2024-03-22T04:50:45;100509.99;;;8.97;90.65
47913;BME280;33676;51.006;17.180;2024-03-22T04:53:12;100510.58;;;8.96;90.74
47913;BME280;33676;51.006;17.180;2024-03-22T04:55:39;100512.20;;;8.95;90.87
47913;BME280;33676;51.006;17.180;2024-03-22T04:58:16;100513.95;;;8.95;90.92
47913;BME280;33676;51.006;17.180;2024-03-22T05:00:45;100514.09;;;8.96;90.92
47913;BME280;33676;51.006;17.180;2024-03-22T05:03:12;100515.63;;;8.96;91.01
47913;BME280;33676;51.006;17.180;2024-03-22T05:05:40;100521.38;;;8.96;91.04
47913;BME280;33676;51.006;17.180;2024-03-22T05:08:08;100520.80;;;8.97;91.27
47913;BME280;33676;51.006;17.180;2024-03-22T05:10:35;100521.42;;;8.99;91.40
47913;BME280;33676;51.006;17.180;2024-03-22T05:13:02;100522.02;;;9.00;91.32
47913;BME280;33676;51.006;17.180;2024-03-22T05:15:29;100521.91;;;9.02;91.44
47913;BME280;33676;51.006;17.180;2024-03-22T05:17:58;100516.52;;;9.04;91.39
47913;BME280;33676;51.006;17.180;2024-03-22T05:20:25;100516.70;;;9.04;91.34
47913;BME280;33676;51.006;17.180;2024-03-22T05:22:53;100519.91;;;9.06;91.36
47913;BME280;33676;51.006;17.180;2024-03-22T05:25:20;100517.14;;;9.07;91.41
47913;BME280;33676;51.006;17.180;2024-03-22T05:27:47;100518.05;;;9.09;91.34
47913;BME280;33676;51.006;17.180;2024-03-22T05:30:14;100511.64;;;9.11;91.50
47913;BME280;33676;51.006;17.180;2024-03-22T05:32:41;100512.00;;;9.14;91.49
47913;BME280;33676;51.006;17.180;2024-03-22T05:35:08;100506.89;;;9.14;91.54
47913;BME280;33676;51.006;17.180;2024-03-22T05:37:36;100517.48;;;9.15;91.72
47913;BME280;33676;51.006;17.180;2024-03-22T05:40:03;100519.32;;;9.16;91.81
47913;BME280;33676;51.006;17.180;2024-03-22T05:42:31;100516.05;;;9.16;91.79
47913;BME280;33676;51.006;17.180;2024-03-22T05:44:58;100515.64;;;9.16;91.79
47913;BME280;33676;51.006;17.180;2024-03-22T05:47:26;100520.29;;;9.15;91.95
47913;BME280;33676;51.006;17.180;2024-03-22T05:50:05;100523.44;;;9.12;92.03
47913;BME280;33676;51.006;17.180;2024-03-22T05:52:35;100527.19;;;9.09;92.10
47913;BME280;33676;51.006;17.180;2024-03-22T05:55:03;100526.34;;;9.05;92.11
47913;BME280;33676;51.006;17.180;2024-03-22T05:57:30;100526.13;;;9.03;92.21
47913;BME280;33676;51.006;17.180;2024-03-22T05:59:57;100528.03;;;9.01;92.61
47913;BME280;33676;51.006;17.180;2024-03-22T06:02:24;100531.63;;;8.97;92.55
47913;BME280;33676;51.006;17.180;2024-03-22T06:04:53;100534.28;;;8.91;92.67
47913;BME280;33676;51.006;17.180;2024-03-22T06:07:20;100529.65;;;8.85;92.80
47913;BME280;33676;51.006;17.180;2024-03-22T06:09:47;100532.46;;;8.80;92.77
47913;BME280;33676;51.006;17.180;2024-03-22T06:12:15;100531.04;;;8.78;93.01
47913;BME280;33676;51.006;17.180;2024-03-22T06:14:43;100526.27;;;8.76;93.06
47913;BME280;33676;51.006;17.180;2024-03-22T06:17:11;100523.95;;;8.77;93.33
47913;BME280;33676;51.006;17.180;2024-03-22T06:19:38;100530.04;;;8.79;93.58
47913;BME280;33676;51.006;17.180;2024-03-22T06:22:05;100528.09;;;8.83;93.72
47913;BME280;33676;51.006;17.180;2024-03-22T06:24:36;100526.25;;;8.84;93.80
47913;BME280;33676;51.006;17.180;2024-03-22T06:27:03;100531.40;;;8.83;93.72
47913;BME280;33676;51.006;17.180;2024-03-22T06:29:30;100528.08;;;8.80;93.62
47913;BME280;33676;51.006;17.180;2024-03-22T06:31:58;100528.17;;;8.79;93.57
47913;BME280;33676;51.006;17.180;2024-03-22T06:34:25;100532.39;;;8.76;93.84
47913;BME280;33676;51.006;17.180;2024-03-22T06:36:52;100529.05;;;8.71;93.68
47913;BME280;33676;51.006;17.180;2024-03-22T06:39:19;100527.50;;;8.68;93.71
47913;BME280;33676;51.006;17.180;2024-03-22T06:41:46;100523.63;;;8.66;93.76
47913;BME280;33676;51.006;17.180;2024-03-22T06:44:13;100520.17;;;8.66;93.91
47913;BME280;33676;51.006;17.180;2024-03-22T06:46:41;100520.08;;;8.67;94.02
47913;BME280;33676;51.006;17.180;2024-03-22T06:49:08;100516.38;;;8.70;94.16
47913;BME280;33676;51.006;17.180;2024-03-22T06:51:35;100516.30;;;8.74;94.24
47913;BME280;33676;51.006;17.180;2024-03-22T06:54:03;100514.66;;;8.77;94.23
47913;BME280;33676;51.006;17.180;2024-03-22T06:56:30;100520.21;;;8.81;94.12
47913;BME280;33676;51.006;17.180;2024-03-22T06:58:57;100517.59;;;8.83;94.05
47913;BME280;33676;51.006;17.180;2024-03-22T07:01:25;100513.39;;;8.85;93.94
47913;BME280;33676;51.006;17.180;2024-03-22T07:03:52;100512.80;;;8.89;94.07
47913;BME280;33676;51.006;17.180;2024-03-22T07:06:19;100516.14;;;8.91;93.99
47913;BME280;33676;51.006;17.180;2024-03-22T07:08:47;100512.81;;;8.94;94.03
47913;BME280;33676;51.006;17.180;2024-03-22T07:11:14;100508.80;;;8.97;93.99
47913;BME280;33676;51.006;17.180;2024-03-22T07:13:41;100506.44;;;8.98;93.83
47913;BME280;33676;51.006;17.180;2024-03-22T07:16:08;100505.20;;;9.01;93.94
47913;BME280;33676;51.006;17.180;2024-03-22T07:18:35;100500.13;;;9.04;93.84
47913;BME280;33676;51.006;17.180;2024-03-22T07:21:03;100497.27;;;9.07;93.83
47913;BME280;33676;51.006;17.180;2024-03-22T07:23:31;100490.88;;;9.12;93.83
47913;BME280;33676;51.006;17.180;2024-03-22T07:25:58;100487.49;;;9.18;93.78
47913;BME280;33676;51.006;17.180;2024-03-22T07:28:26;100487.77;;;9.26;93.71
47913;BME280;33676;51.006;17.180;2024-03-22T07:30:53;100486.98;;;9.38;93.80
47913;BME280;33676;51.006;17.180;2024-03-22T07:33:22;100495.70;;;9.48;93.84
47913;BME280;33676;51.006;17.180;2024-03-22T07:35:49;100497.67;;;9.54;93.66
47913;BME280;33676;51.006;17.180;2024-03-22T07:38:16;100498.21;;;9.61;93.45
47913;BME280;33676;51.006;17.180;2024-03-22T07:40:43;100497.76;;;9.70;93.31
47913;BME280;33676;51.006;17.180;2024-03-22T07:43:10;100503.02;;;9.77;93.12
47913;BME280;33676;51.006;17.180;2024-03-22T07:45:38;100500.40;;;9.87;93.20
47913;BME280;33676;51.006;17.180;2024-03-22T07:48:06;100497.27;;;9.94;92.97
47913;BME280;33676;51.006;17.180;2024-03-22T07:50:33;100497.88;;;10.00;92.93
47913;BME280;33676;51.006;17.180;2024-03-22T07:53:00;100494.83;;;10.04;92.74
47913;BME280;33676;51.006;17.180;2024-03-22T07:55:27;100492.73;;;10.09;92.89
47913;BME280;33676;51.006;17.180;2024-03-22T07:57:54;100495.27;;;10.12;92.71
47913;BME280;33676;51.006;17.180;2024-03-22T08:00:21;100492.47;;;10.12;92.31
47913;BME280;33676;51.006;17.180;2024-03-22T08:02:48;100490.25;;;10.11;92.02
47913;BME280;33676;51.006;17.180;2024-03-22T08:05:15;100484.86;;;10.11;91.93
47913;BME280;33676;51.006;17.180;2024-03-22T08:07:42;100485.89;;;10.11;91.79
47913;BME280;33676;51.006;17.180;2024-03-22T08:10:10;100483.01;;;10.12;91.78
47913;BME280;33676;51.006;17.180;2024-03-22T08:12:37;100478.27;;;10.17;91.86
47913;BME280;33676;51.006;17.180;2024-03-22T08:15:05;100477.64;;;10.26;91.88
47913;BME280;33676;51.006;17.180;2024-03-22T08:17:32;100473.33;;;10.33;91.61
47913;BME280;33676;51.006;17.180;2024-03-22T08:19:59;100462.71;;;10.41;91.62
47913;BME280;33676;51.006;17.180;2024-03-22T08:22:26;100456.92;;;10.51;91.66
47913;BME280;33676;51.006;17.180;2024-03-22T08:24:53;100456.78;;;10.62;91.55
47913;BME280;33676;51.006;17.180;2024-03-22T08:27:22;100443.00;;;10.73;91.78
47913;BME280;33676;51.006;17.180;2024-03-22T08:29:50;100442.45;;;10.87;91.83
47913;BME280;33676;51.006;17.180;2024-03-22T08:32:17;100444.49;;;10.97;91.28
47913;BME280;33676;51.006;17.180;2024-03-22T08:34:45;100439.56;;;11.06;91.43
47913;BME280;33676;51.006;17.180;2024-03-22T08:37:12;100438.86;;;11.20;91.66
47913;BME280;33676;51.006;17.180;2024-03-22T08:39:39;100433.38;;;11.32;91.46
47913;BME280;33676;51.006;17.180;2024-03-22T08:42:07;100433.46;;;11.40;91.25
47913;BME280;33676;51.006;17.180;2024-03-22T08:44:36;100433.35;;;11.52;91.33
47913;BME280;33676;51.006;17.180;2024-03-22T08:47:05;100425.60;;;11.66;91.28
47913;BME280;33676;51.006;17.180;2024-03-22T08:49:32;100420.75;;;11.78;91.05
47913;BME280;33676;51.006;17.180;2024-03-22T08:51:59;100417.53;;;11.90;91.15
47913;BME280;33676;51.006;17.180;2024-03-22T08:54:28;100411.35;;;11.97;90.77
47913;BME280;33676;51.006;17.180;2024-03-22T08:56:55;100403.14;;;12.05;90.83
47913;BME280;33676;51.006;17.180;2024-03-22T08:59:22;100401.00;;;12.24;91.43
47913;BME280;33676;51.006;17.180;2024-03-22T09:01:51;100397.27;;;12.48;91.59
47913;BME280;33676;51.006;17.180;2024-03-22T09:04:21;100389.08;;;12.74;91.70
47913;BME280;33676;51.006;17.180;2024-03-22T09:06:48;100388.67;;;13.05;91.59
47913;BME280;33676;51.006;17.180;2024-03-22T09:09:15;100383.36;;;13.28;91.06
47913;BME280;33676;51.006;17.180;2024-03-22T09:11:43;100374.60;;;13.34;90.29
47913;BME280;33676;51.006;17.180;2024-03-22T09:14:10;100372.51;;;13.38;89.79
47913;BME280;33676;51.006;17.180;2024-03-22T09:16:38;100369.16;;;13.42;89.36
47913;BME280;33676;51.006;17.180;2024-03-22T09:19:05;100373.04;;;13.42;88.81
47913;BME280;33676;51.006;17.180;2024-03-22T09:21:35;100372.00;;;13.45;88.16
47913;BME280;33676;51.006;17.180;2024-03-22T09:24:02;100371.34;;;13.68;88.71
47913;BME280;33676;51.006;17.180;2024-03-22T09:26:34;100378.52;;;13.94;88.25
47913;BME280;33676;51.006;17.180;2024-03-22T09:29:01;100376.42;;;14.28;88.74
47913;BME280;33676;51.006;17.180;2024-03-22T09:31:30;100374.25;;;14.65;89.12
47913;BME280;33676;51.006;17.180;2024-03-22T09:34:00;100371.44;;;14.95;88.53
47913;BME280;33676;51.006;17.180;2024-03-22T09:36:28;100368.83;;;15.00;86.91
47913;BME280;33676;51.006;17.180;2024-03-22T09:38:58;100369.52;;;14.95;86.01
47913;BME280;33676;51.006;17.180;2024-03-22T09:41:25;100369.91;;;14.85;85.14
47913;BME280;33676;51.006;17.180;2024-03-22T09:43:54;100371.02;;;14.77;84.73
47913;BME280;33676;51.006;17.180;2024-03-22T09:46:24;100366.42;;;14.71;84.44
47913;BME280;33676;51.006;17.180;2024-03-22T09:48:54;100359.52;;;14.68;84.01
47913;BME280;33676;51.006;17.180;2024-03-22T09:51:21;100363.95;;;14.74;84.22
47913;BME280;33676;51.006;17.180;2024-03-22T09:53:49;100359.23;;;14.80;84.56
47913;BME280;33676;51.006;17.180;2024-03-22T09:56:18;100363.40;;;14.87;84.39
47913;BME280;33676;51.006;17.180;2024-03-22T09:58:48;100359.92;;;14.88;84.10
47913;BME280;33676;51.006;17.180;2024-03-22T10:01:16;100359.30;;;14.85;83.64
47913;BME280;33676;51.006;17.180;2024-03-22T10:03:44;100358.20;;;14.80;83.11
47913;BME280;33676;51.006;17.180;2024-03-22T10:06:11;100357.80;;;14.75;83.01
47913;BME280;33676;51.006;17.180;2024-03-22T10:08:38;100351.16;;;14.75;83.02
47913;BME280;33676;51.006;17.180;2024-03-22T10:11:05;100342.45;;;14.81;82.97
47913;BME280;33676;51.006;17.180;2024-03-22T10:13:32;100344.37;;;14.87;82.41
47913;BME280;33676;51.006;17.180;2024-03-22T10:16:00;100340.48;;;14.87;82.38
47913;BME280;33676;51.006;17.180;2024-03-22T10:18:26;100337.96;;;14.89;82.43
47913;BME280;33676;51.006;17.180;2024-03-22T10:21:04;100335.77;;;14.93;82.54
47913;BME280;33676;51.006;17.180;2024-03-22T10:23:32;100339.32;;;14.97;82.49
47913;BME280;33676;51.006;17.180;2024-03-22T10:26:00;100335.17;;;14.98;81.81
47913;BME280;33676;51.006;17.180;2024-03-22T10:28:27;100330.09;;;14.98;81.88
47913;BME280;33676;51.006;17.180;2024-03-22T10:30:55;100330.34;;;15.00;81.51
47913;BME280;33676;51.006;17.180;2024-03-22T10:33:22;100329.02;;;15.00;81.17
47913;BME280;33676;51.006;17.180;2024-03-22T10:35:53;100320.59;;;15.02;81.17
47913;BME280;33676;51.006;17.180;2024-03-22T10:38:21;100318.55;;;15.10;81.04
47913;BME280;33676;51.006;17.180;2024-03-22T10:40:48;100318.19;;;15.15;80.88
47913;BME280;33676;51.006;17.180;2024-03-22T10:43:16;100316.31;;;15.24;80.95
47913;BME280;33676;51.006;17.180;2024-03-22T10:45:48;100314.08;;;15.35;81.01
47913;BME280;33676;51.006;17.180;2024-03-22T10:48:25;100314.38;;;15.46;80.67
47913;BME280;33676;51.006;17.180;2024-03-22T10:51:01;100310.14;;;15.55;80.57
47913;BME280;33676;51.006;17.180;2024-03-22T10:53:32;100308.48;;;15.64;80.31
47913;BME280;33676;51.006;17.180;2024-03-22T10:56:01;100300.50;;;15.67;79.49
47913;BME280;33676;51.006;17.180;2024-03-22T10:58:29;100300.09;;;15.69;79.39
47913;BME280;33676;51.006;17.180;2024-03-22T11:00:56;100298.14;;;15.75;79.27
47913;BME280;33676;51.006;17.180;2024-03-22T11:03:25;100289.15;;;15.80;79.24
47913;BME280;33676;51.006;17.180;2024-03-22T11:05:56;100282.16;;;15.84;79.29
47913;BME280;33676;51.006;17.180;2024-03-22T11:10:53;100283.40;;;16.04;79.15
47913;BME280;33676;51.006;17.180;2024-03-22T11:13:20;100276.77;;;16.12;79.02
47913;BME280;33676;51.006;17.180;2024-03-22T11:15:51;100277.31;;;16.22;78.93
47913;BME280;33676;51.006;17.180;2024-03-22T11:18:18;100273.60;;;16.36;78.70
47913;BME280;33676;51.006;17.180;2024-03-22T11:20:45;100274.56;;;16.47;78.29
47913;BME280;33676;51.006;17.180;2024-03-22T11:23:12;100266.29;;;16.66;78.60
47913;BME280;33676;51.006;17.180;2024-03-22T11:25:40;100263.88;;;16.99;78.91
47913;BME280;33676;51.006;17.180;2024-03-22T11:28:07;100262.22;;;17.31;78.81
47913;BME280;33676;51.006;17.180;2024-03-22T11:30:37;100255.77;;;17.58;78.30
47913;BME280;33676;51.006;17.180;2024-03-22T11:33:05;100250.90;;;17.78;77.87
47913;BME280;33676;51.006;17.180;2024-03-22T11:35:34;100245.39;;;17.87;77.34
47913;BME280;33676;51.006;17.180;2024-03-22T11:38:02;100238.77;;;17.97;76.89
47913;BME280;33676;51.006;17.180;2024-03-22T11:40:31;100229.78;;;18.11;76.81
47913;BME280;33676;51.006;17.180;2024-03-22T11:43:02;100229.75;;;18.29;76.91
47913;BME280;33676;51.006;17.180;2024-03-22T11:45:31;100225.96;;;18.44;76.39
47913;BME280;33676;51.006;17.180;2024-03-22T11:48:03;100221.59;;;18.49;75.78
47913;BME280;33676;51.006;17.180;2024-03-22T11:50:32;100211.91;;;18.54;75.77
47913;BME280;33676;51.006;17.180;2024-03-22T11:52:59;100210.61;;;18.56;75.41
47913;BME280;33676;51.006;17.180;2024-03-22T11:55:27;100202.30;;;18.59;75.23
47913;BME280;33676;51.006;17.180;2024-03-22T11:57:57;100201.96;;;18.52;74.38
47913;BME280;33676;51.006;17.180;2024-03-22T12:00:25;100191.02;;;18.41;73.91
47913;BME280;33676;51.006;17.180;2024-03-22T12:03:12;100185.21;;;18.30;73.85
47913;BME280;33676;51.006;17.180;2024-03-22T12:05:40;100183.29;;;18.17;73.41
47913;BME280;33676;51.006;17.180;2024-03-22T12:08:07;100179.01;;;18.08;73.27
47913;BME280;33676;51.006;17.180;2024-03-22T12:10:34;100182.39;;;17.89;72.47
47913;BME280;33676;51.006;17.180;2024-03-22T12:13:01;100173.26;;;17.77;72.43
47913;BME280;33676;51.006;17.180;2024-03-22T12:15:28;100168.70;;;17.72;72.41
47913;BME280;33676;51.006;17.180;2024-03-22T12:17:55;100165.98;;;17.61;72.14
47913;BME280;33676;51.006;17.180;2024-03-22T12:20:22;100163.41;;;17.64;72.58
47913;BME280;33676;51.006;17.180;2024-03-22T12:22:49;100159.98;;;17.64;72.24
47913;BME280;33676;51.006;17.180;2024-03-22T12:25:17;100154.48;;;17.58;72.08
47913;BME280;33676;51.006;17.180;2024-03-22T12:27:46;100147.65;;;17.61;72.19
47913;BME280;33676;51.006;17.180;2024-03-22T12:30:13;100143.20;;;17.69;72.28
47913;BME280;33676;51.006;17.180;2024-03-22T12:32:41;100140.67;;;17.76;71.85
47913;BME280;33676;51.006;17.180;2024-03-22T12:35:11;100136.68;;;17.80;71.86
47913;BME280;33676;51.006;17.180;2024-03-22T12:37:38;100134.45;;;17.85;71.26
47913;BME280;33676;51.006;17.180;2024-03-22T12:40:06;100128.41;;;17.89;71.51
47913;BME280;33676;51.006;17.180;2024-03-22T12:42:35;100124.96;;;18.00;71.93
47913;BME280;33676;51.006;17.180;2024-03-22T12:45:02;100121.64;;;18.04;71.73
47913;BME280;33676;51.006;17.180;2024-03-22T12:47:30;100119.16;;;18.01;71.24
47913;BME280;33676;51.006;17.180;2024-03-22T12:49:57;100120.10;;;17.96;71.11
47913;BME280;33676;51.006;17.180;2024-03-22T12:52:24;100117.70;;;17.90;70.81
47913;BME280;33676;51.006;17.180;2024-03-22T12:54:52;100116.83;;;17.80;70.25